San Benito, TX

6:48 AM CDT on September 18, 2014 (GMT -0500)
Valley International | Change Station
CLOSE
Current Station
Airport
Location: Harlingen,
Elevation: 36 ft
Nearby Weather Stations

Elev 36 ft 26.23 °N, 97.65 °W | Updated 56 minutes ago

Clear
Clear
76 °F
Feels Like 76 °F
N
0
Wind Variable Wind from North

Today
High -- | Low -- °F
--% Chance of Precip.
Yesterday
High -- | Low -- °F
Precip. -- in
7:17 AM 7:31 PM
Waning Crescent, 28% visible
Pressure 29.83 in
Visibility 8.0 miles
Clouds Clear
Dew Point 75 °F
Humidity 97%
Rainfall 0.00 in
Snow Depth Not available.
UV 0 out of 12
Pollen 10.30 out of 12
Ozone Good
PM2.5 Moderate
Flu Activity Not available.
METAR KHRL 181052Z 00000KT 8SM CLR 24/24 A2983 RMK AO2 SLP101 T02440239

More Conditions Fewer Conditions

Pressure 29.83 in
Visibility 8.0 miles
Clouds Clear
Dew Point 75 °F
Humidity 97%
Rainfall 0.00 in
Snow Depth Not available.
UV 0 out of 12
Pollen 10.30 out of 12
Ozone Good
PM2.5 Moderate
Flu Activity Not available.
METAR KHRL 181052Z 00000KT 8SM CLR 24/24 A2983 RMK AO2 SLP101 T02440239

More Conditions Fewer Conditions

10-Day Weather Forecast

Almanac

Astronomy

Sep. 18, 2014 Rise Set
Actual Time 7:17 AM CDT 7:31 PM CDT
Civil Twilight 6:54 AM CDT 7:54 PM CDT
Nautical Twilight 6:27 AM CDT 8:21 PM CDT
Astronomical Twilight 6:00 AM CDT 8:48 PM CDT
Moon 2:32 AM CDT 4:03 PM CDT
Length of Visible Light 13h 00m
Length of Day
12h 13m
Tomorrow will be 1m 32s shorter.
Waning Crescent, 28% of the Moon is Illuminated
Today
Waning Crescent
Sep 24
New
Oct 1
First Quarter
Oct 8
Full
Oct 15
Last Quarter

Today's Extremes

State Highs State Lows

Community

WunderPhotos

Upload Photos

1,754,324 photos uploaded!

Nearby

Air Quality

  Air Quality AQ Index Pollutant
Yesterday Good
PM2.5
Yesterday Good
OZONE
Current Moderate
PM2.5
Current Good
OZONE
Thursday Good
PM10
Thursday Good
OZONE
Friday Good
PM10
Friday Good
OZONE
Saturday Good
PM10
Saturday Good
OZONE

Snow Depth

Station Depth Elevation
No new snow has been reported.

Earthquake Activity

City Distance Mag. Time & Date
No recent earthquake activity has been reported nearby.
Minimum magnitude displayed is 2.5.

Coastal Water Temperatures

Place Temperature
Port Isabel, TX 84.0 °F
Baffin Bay Point of Rocks, TX 82.0 °F
South Bird Island, TX 82.9 °F
Malaquite Beach (Corpus Christi), TX 84.0 °F
Packery Channel, TX 84.0 °F

Nearby Weather Stations